createdAt,value
2022-07-28T00:00:19.154Z,16.52
2022-07-28T00:02:48.941Z,16.51
2022-07-28T00:05:17.490Z,16.51
2022-07-28T00:07:45.925Z,16.49
2022-07-28T00:10:14.483Z,16.48
2022-07-28T00:12:42.845Z,16.45
2022-07-28T00:15:12.119Z,16.44
2022-07-28T00:17:40.504Z,16.43
2022-07-28T00:20:11.794Z,16.41
2022-07-28T00:22:43.026Z,16.41
2022-07-28T00:25:11.988Z,16.36
2022-07-28T00:27:40.533Z,16.36
2022-07-28T00:30:10.480Z,16.33
2022-07-28T00:32:39.160Z,16.32
2022-07-28T00:35:08.768Z,16.32
2022-07-28T00:37:39.793Z,16.30
2022-07-28T00:40:09.689Z,16.30
2022-07-28T00:42:38.146Z,16.29
2022-07-28T00:45:08.164Z,16.27
2022-07-28T00:47:36.492Z,16.27
2022-07-28T00:50:05.644Z,16.26
2022-07-28T00:52:34.873Z,16.25
2022-07-28T00:55:06.390Z,16.24
2022-07-28T00:57:35.195Z,16.22
2022-07-28T01:00:03.902Z,16.20
2022-07-28T01:02:32.503Z,16.19
2022-07-28T01:05:01.049Z,16.17
2022-07-28T01:07:40.059Z,16.18
2022-07-28T01:10:14.429Z,16.16
2022-07-28T01:12:50.333Z,16.15
2022-07-28T01:15:26.378Z,16.13
2022-07-28T01:18:01.914Z,16.12
2022-07-28T01:20:36.739Z,16.10
2022-07-28T01:23:28.834Z,16.10
2022-07-28T01:26:14.663Z,16.08
2022-07-28T01:28:58.447Z,16.04
2022-07-28T01:31:32.215Z,16.04
2022-07-28T01:34:06.708Z,16.01
2022-07-28T01:36:41.132Z,15.98
2022-07-28T01:39:10.818Z,15.95
2022-07-28T01:41:40.579Z,15.92
2022-07-28T01:44:14.584Z,15.89
2022-07-28T01:46:46.388Z,15.87
2022-07-28T01:49:15.367Z,15.85
2022-07-28T01:51:45.558Z,15.83
2022-07-28T01:54:15.809Z,15.81
2022-07-28T01:56:45.252Z,15.77
2022-07-28T01:59:14.926Z,15.74
2022-07-28T02:01:46.645Z,15.70
2022-07-28T02:04:19.915Z,15.67
2022-07-28T02:06:49.647Z,15.63
2022-07-28T02:09:20.745Z,15.62
2022-07-28T02:11:50.347Z,15.58
2022-07-28T02:14:23.042Z,15.54
2022-07-28T02:16:57.176Z,15.50
2022-07-28T02:19:27.632Z,15.47
2022-07-28T02:21:57.259Z,15.43
2022-07-28T02:24:27.761Z,15.41
2022-07-28T02:27:00.713Z,15.38
2022-07-28T02:32:31.954Z,15.33
2022-07-28T02:35:04.834Z,15.29
2022-07-28T02:37:37.221Z,15.26
2022-07-28T02:40:08.678Z,15.23
2022-07-28T02:42:39.042Z,15.20
2022-07-28T02:45:11.861Z,15.18
2022-07-28T02:47:47.787Z,15.15
2022-07-28T02:50:19.925Z,15.12
2022-07-28T02:52:50.094Z,15.09
2022-07-28T02:55:19.256Z,15.07
2022-07-28T02:57:53.199Z,15.05
2022-07-28T03:00:25.739Z,15.02
2022-07-28T03:02:56.391Z,15.01
2022-07-28T03:05:25.233Z,14.99
2022-07-28T03:07:54.191Z,14.96
2022-07-28T03:10:34.070Z,14.95
2022-07-28T03:13:04.173Z,14.92
2022-07-28T03:15:32.556Z,14.88
2022-07-28T03:18:03.335Z,14.85
2022-07-28T03:20:32.022Z,14.83
2022-07-28T03:23:00.881Z,14.82
2022-07-28T03:25:38.173Z,14.79
2022-07-28T03:28:09.111Z,14.77
2022-07-28T03:30:42.670Z,14.75
2022-07-28T03:33:12.880Z,14.73
2022-07-28T03:35:45.468Z,14.70
2022-07-28T03:38:18.026Z,14.68
2022-07-28T03:40:49.191Z,14.63
2022-07-28T03:43:22.299Z,14.61
2022-07-28T03:45:51.353Z,14.58
2022-07-28T03:48:23.408Z,14.55
2022-07-28T03:50:51.793Z,14.52
2022-07-28T03:53:23.816Z,14.50
2022-07-28T03:55:52.242Z,14.48
2022-07-28T03:58:20.661Z,14.45
2022-07-28T04:00:49.431Z,14.43
2022-07-28T04:03:35.022Z,14.41
2022-07-28T04:06:08.715Z,14.37
2022-07-28T04:08:37.054Z,14.36
2022-07-28T04:11:05.558Z,14.35
2022-07-28T04:13:36.544Z,14.33
2022-07-28T04:16:05.405Z,14.29
2022-07-28T04:18:33.856Z,14.28
2022-07-28T04:21:02.217Z,14.27
2022-07-28T04:23:31.908Z,14.26
2022-07-28T04:26:00.323Z,14.25
2022-07-28T04:28:28.821Z,14.24
2022-07-28T04:30:57.347Z,14.25
2022-07-28T04:33:25.895Z,14.23
2022-07-28T04:35:54.376Z,14.23
2022-07-28T04:38:22.682Z,14.22
2022-07-28T04:40:52.380Z,14.23
2022-07-28T04:43:23.022Z,14.24
2022-07-28T04:45:53.906Z,14.23
2022-07-28T04:48:23.925Z,14.23
2022-07-28T04:50:53.656Z,14.23
2022-07-28T04:53:22.567Z,14.24
2022-07-28T04:55:54.789Z,14.24
2022-07-28T04:58:23.603Z,14.24
2022-07-28T05:00:53.017Z,14.24
2022-07-28T05:03:21.924Z,14.24
2022-07-28T05:05:53.994Z,14.27
2022-07-28T05:08:26.074Z,14.28
2022-07-28T05:10:57.194Z,14.29
2022-07-28T05:13:30.323Z,14.30
2022-07-28T05:16:02.427Z,14.32
2022-07-28T05:18:31.010Z,14.34
2022-07-28T05:20:59.357Z,14.34
2022-07-28T05:23:27.814Z,14.37
2022-07-28T05:25:57.619Z,14.39
2022-07-28T05:28:26.233Z,14.40
2022-07-28T05:30:55.149Z,14.42
2022-07-28T05:33:24.814Z,14.44
2022-07-28T05:36:00.516Z,14.46
2022-07-28T05:38:30.307Z,14.50
2022-07-28T05:41:00.314Z,14.53
2022-07-28T05:43:28.992Z,14.55
2022-07-28T05:45:57.481Z,14.58
2022-07-28T05:48:25.894Z,14.62
2022-07-28T05:50:55.092Z,14.66
2022-07-28T05:53:23.643Z,14.69
2022-07-28T05:56:00.657Z,14.75
2022-07-28T05:58:31.682Z,14.81
2022-07-28T06:01:01.999Z,14.85
2022-07-28T06:03:32.353Z,14.92
2022-07-28T06:06:15.960Z,14.98
2022-07-28T06:08:46.844Z,15.05
2022-07-28T06:11:18.032Z,15.14
2022-07-28T06:13:53.476Z,15.21
2022-07-28T06:16:23.014Z,15.29
2022-07-28T06:18:52.211Z,15.36
2022-07-28T06:21:20.671Z,15.41
2022-07-28T06:23:49.025Z,15.47
2022-07-28T06:26:17.845Z,15.52
2022-07-28T06:28:46.207Z,15.58
2022-07-28T06:31:16.011Z,15.63
2022-07-28T06:33:44.402Z,15.68
2022-07-28T06:36:12.780Z,15.76
2022-07-28T06:38:41.128Z,15.82
2022-07-28T06:41:09.549Z,15.86
2022-07-28T06:43:39.197Z,15.92
2022-07-28T06:46:08.187Z,15.97
2022-07-28T06:48:39.361Z,16.02
2022-07-28T06:51:07.915Z,16.07
2022-07-28T06:53:36.305Z,16.11
2022-07-28T06:56:06.118Z,16.16
2022-07-28T06:58:34.551Z,16.21
2022-07-28T07:01:07.388Z,16.24
2022-07-28T07:03:37.832Z,16.30
2022-07-28T07:06:06.201Z,16.35
2022-07-28T07:08:34.858Z,16.41
2022-07-28T07:11:03.315Z,16.45
2022-07-28T07:13:32.874Z,16.50
2022-07-28T07:16:01.641Z,16.57
2022-07-28T07:18:30.061Z,16.64
2022-07-28T07:20:59.869Z,16.71
2022-07-28T07:23:28.253Z,16.79
2022-07-28T07:25:56.765Z,16.86
2022-07-28T07:28:25.151Z,16.92
2022-07-28T07:30:53.563Z,16.98
2022-07-28T07:33:21.962Z,17.06
2022-07-28T07:35:50.299Z,17.12
2022-07-28T07:38:20.036Z,17.19
2022-07-28T07:40:48.460Z,17.25
2022-07-28T07:43:16.824Z,17.30
2022-07-28T07:45:45.330Z,17.34
2022-07-28T07:48:13.720Z,17.39
2022-07-28T07:50:42.107Z,17.43
2022-07-28T07:53:10.468Z,17.48
2022-07-28T07:55:40.452Z,17.50
2022-07-28T07:58:11.698Z,17.53
2022-07-28T08:00:40.788Z,17.57
2022-07-28T08:03:11.419Z,17.63
2022-07-28T08:05:42.445Z,17.69
2022-07-28T08:08:10.800Z,17.75
2022-07-28T08:10:40.852Z,17.80
2022-07-28T08:13:10.064Z,17.83
2022-07-28T08:15:38.471Z,17.87
2022-07-28T08:18:06.932Z,17.92
2022-07-28T08:20:35.284Z,17.97
2022-07-28T08:23:03.661Z,18.00
2022-07-28T08:25:32.044Z,18.06
2022-07-28T08:28:01.757Z,18.11
2022-07-28T08:30:32.662Z,18.16
2022-07-28T08:33:03.098Z,18.22
2022-07-28T08:35:34.125Z,18.27
2022-07-28T08:38:04.747Z,18.32
2022-07-28T08:40:33.348Z,18.37
2022-07-28T08:43:17.646Z,18.45
2022-07-28T08:45:48.029Z,18.52
2022-07-28T08:48:19.022Z,18.58
2022-07-28T08:50:48.654Z,18.65
2022-07-28T08:53:19.919Z,18.70
2022-07-28T08:55:52.586Z,18.79
2022-07-28T08:58:24.402Z,18.86
2022-07-28T09:00:53.068Z,18.94
2022-07-28T09:03:21.674Z,19.01
2022-07-28T09:05:51.396Z,19.09
2022-07-28T09:08:20.212Z,19.16
2022-07-28T09:10:48.937Z,19.23
2022-07-28T09:13:17.880Z,19.31
2022-07-28T09:15:48.493Z,19.36
2022-07-28T09:18:18.481Z,19.40
2022-07-28T09:20:47.420Z,19.46
2022-07-28T09:23:43.213Z,19.49
2022-07-28T09:26:10.989Z,19.53
2022-07-28T09:28:51.272Z,19.58
2022-07-28T09:31:23.005Z,19.62
2022-07-28T09:34:00.738Z,19.68
2022-07-28T09:36:30.200Z,19.74
2022-07-28T09:38:59.117Z,19.80
2022-07-28T09:41:27.609Z,19.86
2022-07-28T09:43:56.096Z,19.90
2022-07-28T09:46:29.230Z,19.97
2022-07-28T09:49:00.499Z,20.02
2022-07-28T09:51:31.135Z,20.06
2022-07-28T09:54:11.453Z,20.10
2022-07-28T09:56:41.726Z,20.14
2022-07-28T09:59:10.670Z,20.18
2022-07-28T10:01:59.721Z,20.24
2022-07-28T10:04:36.653Z,20.29
2022-07-28T10:07:07.431Z,20.38
2022-07-28T10:09:35.821Z,20.43
2022-07-28T10:12:17.497Z,20.50
2022-07-28T10:14:47.315Z,20.56
2022-07-28T10:17:29.390Z,20.62
2022-07-28T10:20:00.447Z,20.69
2022-07-28T10:22:33.011Z,20.75
2022-07-28T10:25:02.968Z,20.82
2022-07-28T10:27:33.064Z,20.90
2022-07-28T10:30:03.469Z,20.97
2022-07-28T10:32:38.086Z,21.05
2022-07-28T10:35:09.768Z,21.14
2022-07-28T10:37:43.581Z,21.23
2022-07-28T10:40:13.762Z,21.32
2022-07-28T10:42:42.778Z,21.37
2022-07-28T10:45:12.077Z,21.42
2022-07-28T10:47:42.234Z,21.46
2022-07-28T10:50:11.214Z,21.52
2022-07-28T10:52:51.465Z,21.58
2022-07-28T10:55:34.199Z,21.68
2022-07-28T10:58:11.544Z,21.75
2022-07-28T11:00:56.073Z,21.85
2022-07-28T11:03:47.473Z,21.94
2022-07-28T11:06:27.289Z,22.02
2022-07-28T11:08:56.193Z,22.11
2022-07-28T11:11:47.094Z,22.21
2022-07-28T11:14:37.700Z,22.29
2022-07-28T11:17:24.000Z,22.39
2022-07-28T11:22:45.501Z,22.51
2022-07-28T11:25:22.298Z,22.60
2022-07-28T11:28:04.467Z,22.69
2022-07-28T11:30:55.354Z,22.74
2022-07-28T11:33:25.078Z,22.79
2022-07-28T11:35:57.422Z,22.82
2022-07-28T11:38:26.311Z,22.89
2022-07-28T11:40:57.132Z,22.99
2022-07-28T11:43:39.723Z,23.13
2022-07-28T11:46:34.437Z,23.25
2022-07-28T11:49:21.639Z,23.34
2022-07-28T11:52:15.539Z,23.43
2022-07-28T11:54:50.611Z,23.52
2022-07-28T11:57:21.273Z,23.61
2022-07-28T11:59:53.243Z,23.69
2022-07-28T12:02:23.928Z,23.77
2022-07-28T12:05:14.016Z,23.84
2022-07-28T12:07:46.420Z,23.90
2022-07-28T12:10:55.693Z,23.99
2022-07-28T12:13:30.297Z,24.10
2022-07-28T12:15:58.852Z,24.21
2022-07-28T12:18:27.278Z,24.31
2022-07-28T12:20:56.077Z,24.38
2022-07-28T12:23:38.993Z,24.46
2022-07-28T12:26:34.497Z,24.61
2022-07-28T12:29:12.299Z,24.75
2022-07-28T12:31:54.232Z,24.84
2022-07-28T12:34:26.624Z,24.91
2022-07-28T12:36:58.935Z,25.01
2022-07-28T12:39:29.206Z,25.08
2022-07-28T12:42:03.481Z,25.13
2022-07-28T12:44:36.242Z,25.21
2022-07-28T12:47:07.918Z,25.32
2022-07-28T12:49:37.777Z,25.46
2022-07-28T12:52:16.229Z,25.58
2022-07-28T12:54:55.153Z,25.59
2022-07-28T12:57:49.196Z,25.65
2022-07-28T13:00:20.138Z,25.78
2022-07-28T13:02:49.646Z,25.89
2022-07-28T13:05:32.404Z,25.98
2022-07-28T13:08:02.618Z,26.03
2022-07-28T13:10:32.694Z,26.08
2022-07-28T13:13:02.936Z,26.08
2022-07-28T13:15:31.720Z,26.02
2022-07-28T13:18:00.709Z,26.00
2022-07-28T13:20:29.434Z,25.97
2022-07-28T13:22:59.410Z,25.99
2022-07-28T13:25:27.792Z,26.04
2022-07-28T13:27:57.934Z,26.14
2022-07-28T13:30:26.347Z,26.27
2022-07-28T13:32:56.543Z,26.34
2022-07-28T13:35:28.976Z,26.38
2022-07-28T13:37:57.581Z,26.44
2022-07-28T13:40:25.993Z,26.47
2022-07-28T13:42:56.801Z,26.56
2022-07-28T13:45:30.615Z,26.66
2022-07-28T13:47:59.064Z,26.73
2022-07-28T13:50:29.188Z,26.76
2022-07-28T13:52:57.525Z,26.79
2022-07-28T13:55:27.333Z,26.84
2022-07-28T13:57:56.529Z,26.92
2022-07-28T14:00:25.280Z,27.02
2022-07-28T14:02:57.935Z,27.08
2022-07-28T14:05:32.204Z,27.22
2022-07-28T14:08:02.050Z,27.25
2022-07-28T14:10:30.478Z,27.21
2022-07-28T14:12:58.816Z,27.17
2022-07-28T14:15:27.187Z,27.15
2022-07-28T14:17:56.988Z,27.12
2022-07-28T14:20:25.449Z,27.13
2022-07-28T14:22:53.856Z,27.11
2022-07-28T14:25:22.233Z,27.12
2022-07-28T14:27:51.627Z,27.15
2022-07-28T14:30:20.813Z,27.17
2022-07-28T14:32:49.410Z,27.19
2022-07-28T14:35:19.468Z,27.17
2022-07-28T14:38:41.922Z,27.08
2022-07-28T14:40:39.794Z,26.96
2022-07-28T14:43:09.396Z,26.85
2022-07-28T14:46:00.609Z,26.76
2022-07-28T14:48:26.704Z,26.71
2022-07-28T14:50:57.077Z,26.73
2022-07-28T14:53:28.046Z,26.73
2022-07-28T14:55:57.126Z,26.73
2022-07-28T14:58:25.737Z,26.78
2022-07-28T15:00:54.697Z,26.80
2022-07-28T15:03:23.239Z,26.86
2022-07-28T15:05:51.680Z,26.97
2022-07-28T15:08:25.862Z,27.10
2022-07-28T15:10:58.681Z,27.25
2022-07-28T15:13:27.753Z,27.43
2022-07-28T15:15:59.722Z,27.52
2022-07-28T15:18:28.751Z,27.58
2022-07-28T15:20:57.130Z,27.57
2022-07-28T15:23:26.836Z,27.59
2022-07-28T15:25:56.057Z,27.63
2022-07-28T15:28:24.474Z,27.65
2022-07-28T15:30:53.211Z,27.62
2022-07-28T15:33:21.659Z,27.55
2022-07-28T15:35:58.092Z,27.48
2022-07-28T15:38:31.482Z,27.39
2022-07-28T15:41:00.516Z,27.29
2022-07-28T15:43:29.286Z,27.20
2022-07-28T15:46:08.491Z,27.06
2022-07-28T15:48:37.730Z,26.87
2022-07-28T15:51:06.232Z,26.71
2022-07-28T15:53:36.602Z,26.56
2022-07-28T15:56:05.837Z,26.43
2022-07-28T15:58:34.399Z,26.35
2022-07-28T16:01:02.774Z,26.29
2022-07-28T16:03:31.594Z,26.24
2022-07-28T16:06:00.081Z,26.18
2022-07-28T16:08:28.498Z,26.13
2022-07-28T16:11:01.409Z,26.06
2022-07-28T16:13:36.013Z,25.96
2022-07-28T16:16:07.526Z,25.88
2022-07-28T16:18:37.347Z,25.81
2022-07-28T16:21:06.305Z,25.75
2022-07-28T16:23:35.244Z,25.70
2022-07-28T16:26:07.996Z,25.64
2022-07-28T16:28:37.047Z,25.59
2022-07-28T16:31:05.604Z,25.55
2022-07-28T16:33:34.230Z,25.53
2022-07-28T16:36:03.114Z,25.50
2022-07-28T16:38:31.579Z,25.47
2022-07-28T16:40:59.972Z,25.45
2022-07-28T16:43:30.291Z,25.46
2022-07-28T16:45:58.737Z,25.49
2022-07-28T16:48:27.147Z,25.50
2022-07-28T16:50:56.584Z,25.52
2022-07-28T16:53:24.936Z,25.53
2022-07-28T16:55:53.339Z,25.53
2022-07-28T16:58:22.225Z,25.55
2022-07-28T17:00:52.054Z,25.55
2022-07-28T17:03:20.458Z,25.54
2022-07-28T17:05:48.889Z,25.53
2022-07-28T17:08:17.228Z,25.49
2022-07-28T17:10:45.867Z,25.43
2022-07-28T17:13:15.497Z,25.39
2022-07-28T17:15:43.905Z,25.34
2022-07-28T17:18:13.702Z,25.29
2022-07-28T17:20:46.923Z,25.23
2022-07-28T17:23:15.311Z,25.20
2022-07-28T17:25:59.612Z,25.16
2022-07-28T17:28:32.294Z,25.15
2022-07-28T17:31:01.014Z,25.14
2022-07-28T17:33:31.280Z,25.12
2022-07-28T17:36:00.205Z,25.08
2022-07-28T17:38:33.306Z,25.07
2022-07-28T17:41:03.965Z,25.03
2022-07-28T17:43:32.794Z,24.96
2022-07-28T17:46:02.983Z,24.94
2022-07-28T17:48:38.716Z,24.92
2022-07-28T17:51:07.268Z,24.88
2022-07-28T17:53:39.252Z,24.82
2022-07-28T17:56:09.009Z,24.77
2022-07-28T17:58:39.212Z,24.72
2022-07-28T18:01:12.371Z,24.68
2022-07-28T18:03:57.499Z,24.63
2022-07-28T18:06:31.909Z,24.57
2022-07-28T18:09:05.444Z,24.51
2022-07-28T18:11:56.569Z,24.46
2022-07-28T18:14:26.056Z,24.41
2022-07-28T18:16:54.521Z,24.37
2022-07-28T18:19:24.270Z,24.31
2022-07-28T18:21:53.169Z,24.25
2022-07-28T18:24:22.784Z,24.21
2022-07-28T18:26:52.279Z,24.15
2022-07-28T18:29:21.753Z,24.09
2022-07-28T18:31:51.446Z,24.04
2022-07-28T18:34:23.345Z,23.97
2022-07-28T18:36:55.215Z,23.90
2022-07-28T18:39:23.596Z,23.85
2022-07-28T18:41:54.579Z,23.79
2022-07-28T18:44:23.122Z,23.76
2022-07-28T18:46:51.679Z,23.72
2022-07-28T18:49:21.507Z,23.66
2022-07-28T18:51:50.423Z,23.63
2022-07-28T18:54:27.505Z,23.58
2022-07-28T18:56:56.701Z,23.54
2022-07-28T18:59:25.141Z,23.49
2022-07-28T19:01:53.699Z,23.44
2022-07-28T19:04:22.185Z,23.40
2022-07-28T19:06:51.162Z,23.35
2022-07-28T19:09:20.975Z,23.31
2022-07-28T19:11:49.424Z,23.25
2022-07-28T19:14:18.991Z,23.22
2022-07-28T19:16:47.725Z,23.16
2022-07-28T19:19:16.294Z,23.11
2022-07-28T19:21:44.727Z,23.09
2022-07-28T19:24:13.825Z,23.03
2022-07-28T19:26:45.786Z,22.98
2022-07-28T19:29:14.649Z,22.91
2022-07-28T19:31:43.016Z,22.88
2022-07-28T19:34:11.662Z,22.83
2022-07-28T19:36:41.491Z,22.79
2022-07-28T19:39:10.387Z,22.75
2022-07-28T19:41:38.826Z,22.71
2022-07-28T19:44:08.609Z,22.69
2022-07-28T19:46:39.286Z,22.65
2022-07-28T19:49:08.092Z,22.59
2022-07-28T19:51:36.775Z,22.56
2022-07-28T19:54:05.792Z,22.54
2022-07-28T19:56:34.434Z,22.49
2022-07-28T19:59:03.568Z,22.47
2022-07-28T20:01:33.557Z,22.44
2022-07-28T20:04:05.288Z,22.41
2022-07-28T20:06:34.387Z,22.40
2022-07-28T20:09:03.955Z,22.38
2022-07-28T20:11:33.676Z,22.36
2022-07-28T20:14:02.373Z,22.32
2022-07-28T20:16:30.829Z,22.31
2022-07-28T20:19:00.626Z,22.27
2022-07-28T20:21:29.175Z,22.25
2022-07-28T20:24:07.368Z,22.24
2022-07-28T20:26:36.092Z,22.20
2022-07-28T20:29:05.830Z,22.18
2022-07-28T20:31:34.452Z,22.13
2022-07-28T20:34:06.813Z,22.10
2022-07-28T20:36:35.680Z,22.08
2022-07-28T20:39:21.007Z,22.05
2022-07-28T20:41:52.568Z,22.04
2022-07-28T20:44:29.505Z,22.01
2022-07-28T20:47:00.377Z,21.97
2022-07-28T20:49:30.236Z,21.94
2022-07-28T20:51:59.367Z,21.91
2022-07-28T20:54:27.715Z,21.88
2022-07-28T20:56:56.234Z,21.85
2022-07-28T20:59:27.648Z,21.83
2022-07-28T21:01:56.742Z,21.81
2022-07-28T21:04:26.263Z,21.79
2022-07-28T21:07:01.793Z,21.75
2022-07-28T21:09:32.379Z,21.71
2022-07-28T21:12:00.993Z,21.69
2022-07-28T21:14:29.516Z,21.66
2022-07-28T21:16:57.916Z,21.61
2022-07-28T21:19:26.288Z,21.59
2022-07-28T21:21:56.041Z,21.57
2022-07-28T21:24:24.373Z,21.54
2022-07-28T21:26:53.513Z,21.51
2022-07-28T21:32:04.619Z,21.45
2022-07-28T21:34:35.589Z,21.42
2022-07-28T21:37:06.661Z,21.39
2022-07-28T21:39:35.778Z,21.36
2022-07-28T21:42:07.725Z,21.34
2022-07-28T21:44:37.418Z,21.31
2022-07-28T21:47:05.941Z,21.30
2022-07-28T21:49:34.371Z,21.26
2022-07-28T21:52:02.763Z,21.25
2022-07-28T21:54:32.529Z,21.23
2022-07-28T21:57:00.885Z,21.21
2022-07-28T21:59:29.362Z,21.20
2022-07-28T22:01:57.703Z,21.20
2022-07-28T22:04:26.121Z,21.16
2022-07-28T22:06:54.574Z,21.15
2022-07-28T22:09:23.139Z,21.12
2022-07-28T22:11:52.939Z,21.10
2022-07-28T22:14:21.365Z,21.08
2022-07-28T22:16:50.478Z,21.05
2022-07-28T22:19:18.830Z,21.03
2022-07-28T22:21:47.862Z,21.00
2022-07-28T22:24:16.861Z,21.00
2022-07-28T22:26:45.512Z,20.96
2022-07-28T22:29:15.206Z,20.93
2022-07-28T22:31:43.837Z,20.91
2022-07-28T22:34:12.995Z,20.89
2022-07-28T22:36:41.549Z,20.87
2022-07-28T22:39:09.893Z,20.85
2022-07-28T22:41:38.215Z,20.83
2022-07-28T22:44:07.530Z,20.80
2022-07-28T22:46:37.325Z,20.77
2022-07-28T22:49:05.784Z,20.76
2022-07-28T22:51:34.127Z,20.76
2022-07-28T22:54:02.696Z,20.74
2022-07-28T22:56:37.287Z,20.73
2022-07-28T22:59:06.435Z,20.73
2022-07-28T23:01:35.037Z,20.72
2022-07-28T23:04:05.180Z,20.70
2022-07-28T23:06:35.999Z,20.69
2022-07-28T23:09:04.602Z,20.68
2022-07-28T23:11:32.933Z,20.67
2022-07-28T23:14:01.305Z,20.65
2022-07-28T23:16:29.673Z,20.65
2022-07-28T23:18:58.738Z,20.63
2022-07-28T23:21:29.579Z,20.62
2022-07-28T23:23:57.948Z,20.61
2022-07-28T23:26:26.244Z,20.59
2022-07-28T23:28:54.573Z,20.57
2022-07-28T23:31:23.017Z,20.55
2022-07-28T23:33:55.266Z,20.54
2022-07-28T23:36:26.395Z,20.52
2022-07-28T23:38:58.289Z,20.51
2022-07-28T23:41:27.957Z,20.48
2022-07-28T23:43:56.344Z,20.47
2022-07-28T23:46:25.150Z,20.45
2022-07-28T23:48:53.707Z,20.44
2022-07-28T23:51:22.567Z,20.42
2022-07-28T23:54:08.165Z,20.40
2022-07-28T23:56:36.473Z,20.39
2022-07-28T23:59:04.853Z,20.36
